Accueil
METAR-TAF:

METAR-TAF

Aéroports :

Livingston County Spencer J. Hardy Airport

Howell, Michigan, États-Unis

latitude: 42-37-46N, longitude: 083-59-03W, altitude: 293 m

Observation

Le bulletin a été fait il y a 26 minutes, à 09:15 UTC
Vent 7 kt de sud/sud-est
Température 14°C
Humidité 88%
Pression 1010 hPa
Visibilité: 16.1 km
Nuages fragmentés à une hauteur de 2800 ft
Nuages fragmentés à une hauteur de 3600 ft
Ciel couvert à une hauteur de 12000 ft
pluie

METAR: KOZW 210915Z AUTO 15007KT 10SM RA BKN028 BKN036 OVC120 14/12 A2983 RMK AO2 T01410116

Heure: 05:41 (09:41 UTC)


TAF: absent

Observations et prévisions météorologiques de plus de 4000 aéroports (messages METAR et TAF).

Les stations disponibles sont représentées par des disques jaunes et rouges sur la carte.

Passer la souris dessus pour voir le nom de la station.

Cliquer dessus pour voir les observations et prévisions météorologiques.

Pour changer de carte: cliquez sur les boutons verts avec une croix noire pour zoomer, sur le bouton vert avec un tiret pour effectuer un zoom arrière, ou sur les flèches vertes pour les cartes adjacentes.


METAR-TAF: